Airfield :
LOGIN :

Register | Disclaimer

   EN    FR    IT 

 










Legend :    VFR   Marginal VFR   IFR   Intensive IFR   Very Intensive IFR
Visi :
Ceiling :
>= 8 km
>= 3000ft
5 to 8 km
1000 to 3000 ft
1500m to 5 km
500 to 1000 ft
800 to 1500m
200 to 500 ft
< 800m
< 200 ft
Symbols :   Thunderstorms  Fog  Heavy snow  Heavy precipitations  Wind > 20 kt
SIGMETs :     Misc.  Thunderstorms  Icing  Turbulence  Mountain Waves  Volcanic Ashes






- Airport Elevation : 1036 ft
- IATA code : ERF


EDDE - Erfurt

CURRENT METAR :
  • 150720Z 06007KT 0200 R28/0325V0500N FG VV/// 01/01 Q1001 TEMPO 0100 FG

EXPIRED METARs :
  • 150650Z 07007KT 0200 R10/0650D FG VV/// 01/01 Q1001 TEMPO 0100 FG
  • 150620Z 07009KT 0200 R10/0750N FG VV/// 01/01 Q1001 TEMPO 0100 FG
  • 150550Z 07006KT 030V100 0300 R10/0800N FG VV/// 01/01 Q1001 TEMPO 0100 FG
  • 150520Z 08009KT 040V100 0400 R10/1000U FG VV/// 01/01 Q1001 TEMPO 0100 FG
  • 150450Z 07006KT 040V100 0400 R10/0750N FG VV/// 00/00 Q1002 TEMPO 0100 FG

TAF TAF EDDE
Valid from the 15 at 06:00 until the 16 at 06:00 UTC


150500Z 1506/1606 06005KT 0400 FG BKN001
TEMPO 1506/1512 0100 FG BKN000
BECMG 1511/1514 3000 BR BKN004
BECMG 1516/1519 VRB03KT BKN015
PROB30
TEMPO 1520/1606 0400 FG BKN001
TEMPO 1600/1606 2000 -RADZ BKN004



MET'MAP, your aeronautical weather chart ! - Copyright ORBIFLY December 2007 - Disclaimer

ORBIFLY MET'MAP TEAM :

Programming & Development : Alexandra Zaïnal
Concept & Development : Baudouin d'Aumeries
Co-Development & Prog : Marc-Olivier Méhu
Technical & hardware support : Manuel Goepfert

Contact : metmap@orbifly.com




SOURCES & CREDITS :

   NOAA